WetterOnline ( http://www.wetteronline.de )

Wetter aktuell Sauerland (in 400m)

Aktuelles Wetter: Lüdenscheid (392m)

6-stündlich | Neueste Meldungen
Ortszeit Temperatur Wetter
So, 18.11. 13:00 5.6° C wolkenlos
So, 18.11. 7:00 -0.3° C wolkenlos
So, 18.11. 1:00 2.2° C wolkenlos
Sa, 17.11. 19:00 4.1° C wolkenlos
Sa, 17.11. 13:00 9.7° C wolkenlos
Sa, 17.11. 7:00 2.4° C wolkenlos
Sa, 17.11. 1:00 3.1° C wolkenlos
Fr, 16.11. 19:00 6.1° C wolkenlos
Ortszeit Temperatur Wetter
So, 18.11. 14:30 6.7° C fast wolkenlos
So, 18.11. 14:20 6.7° C fast wolkenlos
So, 18.11. 14:10 6.6° C leicht bewölkt
So, 18.11. 14:00 6.6° C leicht bewölkt
So, 18.11. 13:50 6.6° C leicht bewölkt
So, 18.11. 13:40 6.7° C wolkenlos
So, 18.11. 13:30 6.3° C wolkenlos
So, 18.11. 13:00 5.6° C wolkenlos
So, 18.11. 12:30 5.2° C wolkenlos
So, 18.11. 12:00 4.9° C fast wolkenlos
So, 18.11. 11:30 4.8° C leicht bewölkt
Ortszeit Relative Feuchte Sichtweite
So, 18.11. 13:00 46% 55 km
So, 18.11. 7:00 62% 50 km
So, 18.11. 1:00 64% 35 km
Sa, 17.11. 19:00 54% 50 km
Sa, 17.11. 13:00 47% 50 km
Sa, 17.11. 7:00 76% 30 km
Sa, 17.11. 1:00 78% 29 km
Fr, 16.11. 19:00 56% 50 km
Ortszeit Relative Feuchte Sichtweite
So, 18.11. 14:30 32% 55 km
So, 18.11. 14:20 32% -
So, 18.11. 14:10 35% -
So, 18.11. 14:00 37% 55 km
So, 18.11. 13:50 37% -
So, 18.11. 13:40 39% -
So, 18.11. 13:30 42% 45 km
So, 18.11. 13:00 46% 55 km
So, 18.11. 12:30 49% 40 km
So, 18.11. 12:00 49% 50 km
So, 18.11. 11:30 47% 60 km
Ortszeit Niederschlagsmenge Niederschlagsart
So, 18.11. 13:00 0.0 l/m2 in 6 Std. -
So, 18.11. 7:00 0.0 l/m2 in 12 Std. -
So, 18.11. 1:00 0.0 l/m2 in 6 Std. -
Sa, 17.11. 19:00 0.0 l/m2 in 12 Std. -
Sa, 17.11. 13:00 0.0 l/m2 in 6 Std. -
Sa, 17.11. 7:00 0.0 l/m2 in 12 Std. -
Sa, 17.11. 1:00 0.0 l/m2 in 6 Std. -
Fr, 16.11. 19:00 0.1 l/m2 in 12 Std. Niederschlag
Ortszeit Niederschlagsmenge Niederschlagsart
So, 18.11. 14:30 0.0 l/m2 in 1 Std. -
So, 18.11. 14:20 keine Meldung -
So, 18.11. 14:10 keine Meldung -
So, 18.11. 14:00 0.0 l/m2 in 1 Std. -
So, 18.11. 13:50 keine Meldung -
So, 18.11. 13:40 keine Meldung -
So, 18.11. 13:30 0.0 l/m2 in 1 Std. -
So, 18.11. 13:00 0.0 l/m2 in 1 Std. -
So, 18.11. 12:30 0.0 l/m2 in 1 Std. -
So, 18.11. 12:00 0.0 l/m2 in 1 Std. -
So, 18.11. 11:30 0.0 l/m2 in 1 Std. -
Ortszeit Stärke Spitze Richtung
km/h Bft. km/h Grad Sektor
So, 18.11. 13:00 11 2 18 60° NO
So, 18.11. 7:00 4 1 18 40° NO
So, 18.11. 1:00 11 2 29 70° O
Sa, 17.11. 19:00 18 3 47 70° O
Sa, 17.11. 13:00 20 4 43 90° O
Sa, 17.11. 7:00 13 3 30 90° O
Sa, 17.11. 1:00 11 2 22 80° O
Fr, 16.11. 19:00 11 2 19 100° O
Ortszeit Stärke Spitze Richtung
km/h Bft. km/h Grad Sektor
So, 18.11. 14:30 14 3 36 60° NO
So, 18.11. 14:20 14 3 - 60° NO
So, 18.11. 14:10 18 3 - 60° NO
So, 18.11. 14:00 17 3 28 60° NO
So, 18.11. 13:50 17 3 - 60° NO
So, 18.11. 13:40 14 3 - 70° O
So, 18.11. 13:30 11 2 18 80° O
So, 18.11. 13:00 11 2 18 60° NO
So, 18.11. 12:30 11 2 14 70° O
So, 18.11. 12:00 9 2 19 60° NO
So, 18.11. 11:30 7 2 19 60° NO
Ortszeit Untergrenze Bedeckung Gattung
total tief tief mittel hoch
So, 18.11. 13:00 - 0/8 0/8 - - -
So, 18.11. 7:00 - 0/8 0/8 - - -
So, 18.11. 1:00 - 0/8 0/8 - - -
Sa, 17.11. 19:00 - 0/8 0/8 - - -
Sa, 17.11. 13:00 - 0/8 0/8 - - -
Sa, 17.11. 7:00 - 0/8 0/8 - - -
Sa, 17.11. 1:00 - 0/8 0/8 - - -
Fr, 16.11. 19:00 - 0/8 0/8 - - -
Ortszeit Bedeckungsgrad in Achtel und Wolkenuntergrenze
So, 18.11. 14:30 1(3900m)
So, 18.11. 14:20 1(3900m)
So, 18.11. 14:10 2(3900m)
So, 18.11. 14:00 2(3900m)
So, 18.11. 13:50 2(3900m)
So, 18.11. 13:40 keine Wolken
So, 18.11. 13:30 keine Wolken
So, 18.11. 13:00 keine Wolken
So, 18.11. 12:30 keine Wolken
So, 18.11. 12:00 2(7200m)
So, 18.11. 11:30 6(7200m)
Ortszeit Luftdruck NN (hPa) Tendenz (hPa in 3 Std.)
So, 18.11. 13:00 1028 - 1,4
So, 18.11. 7:00 1031 - 0,8
So, 18.11. 1:00 1031 - 0,6
Sa, 17.11. 19:00 1031 0,0
Sa, 17.11. 13:00 1031 - 0,4
Sa, 17.11. 7:00 1031 + 0,2
Sa, 17.11. 1:00 1031 + 0,3
Fr, 16.11. 19:00 1030 + 0,2
Ortszeit Luftdruck NN (hPa) Tendenz (hPa in 3 Std.)
So, 18.11. 14:30 1027 - 1,9
So, 18.11. 14:20 1027 keine Meldung
So, 18.11. 14:10 1027 keine Meldung
So, 18.11. 14:00 1027 - 0,8
So, 18.11. 13:50 1027 keine Meldung
So, 18.11. 13:40 1028 keine Meldung
So, 18.11. 13:30 1028 - 1,0
So, 18.11. 13:00 1028 - 1,4
So, 18.11. 12:30 1029 - 0,8
So, 18.11. 12:00 1029 - 0,3
So, 18.11. 11:30 1029 - 1,0
Ortszeit Schneehöhe (cm)
So, 18.11. 13:00 0
So, 18.11. 7:00 0
So, 18.11. 1:00 0
Sa, 17.11. 19:00 0
Sa, 17.11. 13:00 0
Sa, 17.11. 7:00 0
Sa, 17.11. 1:00 0
Fr, 16.11. 19:00 0
Ortszeit Schneehöhe (cm)
So, 18.11. 14:30 0
So, 18.11. 14:20 0
So, 18.11. 14:10 0
So, 18.11. 14:00 0
So, 18.11. 13:50 0
So, 18.11. 13:40 0
So, 18.11. 13:30 0
So, 18.11. 13:00 0
So, 18.11. 12:30 0
So, 18.11. 12:00 0
So, 18.11. 11:30 0
Link zu dieser Seite / Seite empfehlen

Das Wetter in ...